sensor_id;sensor_type;location;lat;lon;timestamp;pressure;altitude;pressure_sealevel;temperature;humidity
48792;BME280;34587;48.816;9.420;2024-03-25T00:00:38;98081.88;;;4.80;100.00
48792;BME280;34587;48.816;9.420;2024-03-25T00:03:03;98091.34;;;4.68;100.00
48792;BME280;34587;48.816;9.420;2024-03-25T00:05:29;98088.78;;;4.66;100.00
48792;BME280;34587;48.816;9.420;2024-03-25T00:07:56;98092.22;;;4.65;100.00
48792;BME280;34587;48.816;9.420;2024-03-25T00:10:21;98092.22;;;4.65;100.00
48792;BME280;34587;48.816;9.420;2024-03-25T00:12:47;98087.94;;;4.62;100.00
48792;BME280;34587;48.816;9.420;2024-03-25T00:15:18;98087.06;;;4.68;100.00
48792;BME280;34587;48.816;9.420;2024-03-25T00:17:44;98093.13;;;4.56;100.00
48792;BME280;34587;48.816;9.420;2024-03-25T00:20:10;98088.88;;;4.51;100.00
48792;BME280;34587;48.816;9.420;2024-03-25T00:22:35;98097.44;;;4.47;100.00
48792;BME280;34587;48.816;9.420;2024-03-25T00:25:01;98083.78;;;4.46;100.00
48792;BME280;34587;48.816;9.420;2024-03-25T00:27:26;98087.19;;;4.50;100.00
48792;BME280;34587;48.816;9.420;2024-03-25T00:29:51;98084.63;;;4.44;100.00
48792;BME280;34587;48.816;9.420;2024-03-25T00:32:17;98084.53;;;4.59;100.00
48792;BME280;34587;48.816;9.420;2024-03-25T00:34:42;98083.69;;;4.60;100.00
48792;BME280;34587;48.816;9.420;2024-03-25T00:37:07;98086.22;;;4.66;100.00
48792;BME280;34587;48.816;9.420;2024-03-25T00:39:33;98081.09;;;4.63;100.00
48792;BME280;34587;48.816;9.420;2024-03-25T00:41:59;98085.41;;;4.58;100.00
48792;BME280;34587;48.816;9.420;2024-03-25T00:44:25;98070.91;;;4.52;100.00
48792;BME280;34587;48.816;9.420;2024-03-25T00:46:50;98079.50;;;4.45;100.00
48792;BME280;34587;48.816;9.420;2024-03-25T00:49:16;98072.66;;;4.44;100.00
48792;BME280;34587;48.816;9.420;2024-03-25T00:51:41;98078.63;;;4.45;100.00
48792;BME280;34587;48.816;9.420;2024-03-25T00:54:07;98080.38;;;4.41;100.00
48792;BME280;34587;48.816;9.420;2024-03-25T00:56:32;98084.63;;;4.42;100.00
48792;BME280;34587;48.816;9.420;2024-03-25T00:58:57;98079.50;;;4.47;100.00
48792;BME280;34587;48.816;9.420;2024-03-25T05:16:03;98065.00;;;4.38;100.00
48792;BME280;34587;48.816;9.420;2024-03-25T05:18:29;98072.63;;;4.50;100.00
48792;BME280;34587;48.816;9.420;2024-03-25T05:20:54;98067.50;;;4.50;100.00
48792;BME280;34587;48.816;9.420;2024-03-25T05:23:19;98069.25;;;4.45;100.00
48792;BME280;34587;48.816;9.420;2024-03-25T05:25:44;98066.66;;;4.44;100.00
48792;BME280;34587;48.816;9.420;2024-03-25T05:28:10;98068.28;;;4.63;100.00
48792;BME280;34587;48.816;9.420;2024-03-25T05:30:35;98071.78;;;4.48;100.00
48792;BME280;34587;48.816;9.420;2024-03-25T05:33:00;98068.38;;;4.48;100.00
48792;BME280;34587;48.816;9.420;2024-03-25T05:35:25;98070.94;;;4.45;100.00
48792;BME280;34587;48.816;9.420;2024-03-25T05:37:51;98076.94;;;4.47;100.00
48792;BME280;34587;48.816;9.420;2024-03-25T05:40:16;98076.88;;;4.53;100.00
48792;BME280;34587;48.816;9.420;2024-03-25T05:42:44;98080.28;;;4.58;100.00
48792;BME280;34587;48.816;9.420;2024-03-25T05:45:10;98083.66;;;4.69;100.00
48792;BME280;34587;48.816;9.420;2024-03-25T05:47:35;98087.78;;;4.90;100.00
48792;BME280;34587;48.816;9.420;2024-03-25T05:50:01;98088.75;;;4.75;100.00
48792;BME280;34587;48.816;9.420;2024-03-25T05:52:28;98086.19;;;4.75;100.00
48792;BME280;34587;48.816;9.420;2024-03-25T05:54:54;98092.22;;;4.65;100.00
48792;BME280;34587;48.816;9.420;2024-03-25T05:57:19;98085.31;;;4.76;100.00
48792;BME280;34587;48.816;9.420;2024-03-25T05:59:44;98088.53;;;5.06;100.00
48792;BME280;34587;48.816;9.420;2024-03-25T06:02:09;98095.41;;;5.04;100.00
48792;BME280;34587;48.816;9.420;2024-03-25T06:04:35;98090.34;;;4.92;100.00
48792;BME280;34587;48.816;9.420;2024-03-25T06:07:00;98092.88;;;4.96;100.00
48792;BME280;34587;48.816;9.420;2024-03-25T06:09:25;98086.78;;;5.11;100.00
48792;BME280;34587;48.816;9.420;2024-03-25T06:11:51;98096.19;;;5.13;100.00
48792;BME280;34587;48.816;9.420;2024-03-25T06:14:16;98088.41;;;5.24;100.00
48792;BME280;34587;48.816;9.420;2024-03-25T06:16:41;98086.50;;;5.48;100.00
48792;BME280;34587;48.816;9.420;2024-03-25T06:19:08;98084.91;;;5.31;100.00
48792;BME280;34587;48.816;9.420;2024-03-25T06:21:33;98079.41;;;5.73;100.00
48792;BME280;34587;48.816;9.420;2024-03-25T06:23:58;98082.84;;;5.70;100.00
48792;BME280;34587;48.816;9.420;2024-03-25T06:26:24;98084.56;;;5.70;100.00
48792;BME280;34587;48.816;9.420;2024-03-25T06:28:49;98080.31;;;5.65;100.00
48792;BME280;34587;48.816;9.420;2024-03-25T06:31:14;98083.75;;;5.64;100.00
48792;BME280;34587;48.816;9.420;2024-03-25T06:33:58;98076.16;;;5.54;100.00
48792;BME280;34587;48.816;9.420;2024-03-25T06:36:42;98076.88;;;5.68;100.00
48792;BME280;34587;48.816;9.420;2024-03-25T06:39:08;98062.34;;;7.54;100.00
48792;BME280;34587;48.816;9.420;2024-03-25T06:41:34;98057.41;;;10.13;100.00
48792;BME280;34587;48.816;9.420;2024-03-25T06:43:59;98042.50;;;11.35;91.81
48792;BME280;34587;48.816;9.420;2024-03-25T06:46:24;98046.03;;;11.58;86.94
48792;BME280;34587;48.816;9.420;2024-03-25T06:48:50;98053.72;;;12.58;79.32
48792;BME280;34587;48.816;9.420;2024-03-25T06:51:17;98057.63;;;12.47;75.87
48792;BME280;34587;48.816;9.420;2024-03-25T06:53:42;98072.94;;;11.01;86.58
48792;BME280;34587;48.816;9.420;2024-03-25T06:56:08;98073.25;;;10.00;97.91
48792;BME280;34587;48.816;9.420;2024-03-25T06:58:34;98078.47;;;9.32;100.00
48792;BME280;34587;48.816;9.420;2024-03-25T07:01:05;98077.84;;;8.46;100.00
48792;BME280;34587;48.816;9.420;2024-03-25T07:03:30;98078.03;;;9.15;100.00
48792;BME280;34587;48.816;9.420;2024-03-25T07:05:56;98079.88;;;9.08;100.00
48792;BME280;34587;48.816;9.420;2024-03-25T07:08:22;98076.41;;;8.30;100.00
48792;BME280;34587;48.816;9.420;2024-03-25T07:10:47;98075.94;;;8.10;100.00
48792;BME280;34587;48.816;9.420;2024-03-25T07:13:13;98085.25;;;7.72;100.00
48792;BME280;34587;48.816;9.420;2024-03-25T07:15:39;98079.75;;;7.90;100.00
48792;BME280;34587;48.816;9.420;2024-03-25T07:18:05;98086.13;;;7.71;100.00
48792;BME280;34587;48.816;9.420;2024-03-25T07:20:31;98088.50;;;7.83;100.00
48792;BME280;34587;48.816;9.420;2024-03-25T07:22:57;98080.97;;;9.35;100.00
48792;BME280;34587;48.816;9.420;2024-03-25T07:25:23;98076.53;;;11.77;85.29
48792;BME280;34587;48.816;9.420;2024-03-25T07:27:48;98071.97;;;13.46;67.81
48792;BME280;34587;48.816;9.420;2024-03-25T07:30:16;98065.41;;;14.58;60.08
48792;BME280;34587;48.816;9.420;2024-03-25T07:32:42;98072.56;;;13.53;59.96
48792;BME280;34587;48.816;9.420;2024-03-25T07:35:09;98068.88;;;13.79;62.12
48792;BME280;34587;48.816;9.420;2024-03-25T07:37:35;98068.63;;;13.85;58.56
48792;BME280;34587;48.816;9.420;2024-03-25T07:40:01;98071.66;;;11.68;74.48
48792;BME280;34587;48.816;9.420;2024-03-25T07:42:26;98078.44;;;10.63;88.69
48792;BME280;34587;48.816;9.420;2024-03-25T07:44:51;98080.34;;;11.14;84.93
48792;BME280;34587;48.816;9.420;2024-03-25T07:47:18;98079.09;;;10.97;84.39
48792;BME280;34587;48.816;9.420;2024-03-25T07:49:43;98063.66;;;12.00;77.48
48792;BME280;34587;48.816;9.420;2024-03-25T07:52:08;98072.63;;;10.84;82.14
48792;BME280;34587;48.816;9.420;2024-03-25T07:54:33;98071.28;;;10.71;85.64
48792;BME280;34587;48.816;9.420;2024-03-25T07:56:59;98072.34;;;10.93;87.38
48792;BME280;34587;48.816;9.420;2024-03-25T07:59:24;98076.66;;;10.35;88.72
48792;BME280;34587;48.816;9.420;2024-03-25T08:01:50;98084.00;;;10.18;93.89
48792;BME280;34587;48.816;9.420;2024-03-25T08:04:15;98076.53;;;9.74;95.88
48792;BME280;34587;48.816;9.420;2024-03-25T08:06:40;98086.78;;;9.09;100.00
48792;BME280;34587;48.816;9.420;2024-03-25T08:09:05;98084.06;;;8.77;100.00
48792;BME280;34587;48.816;9.420;2024-03-25T08:11:33;98078.16;;;8.70;100.00
48792;BME280;34587;48.816;9.420;2024-03-25T08:13:59;98080.72;;;9.09;100.00
48792;BME280;34587;48.816;9.420;2024-03-25T08:16:24;98077.13;;;10.17;98.80
48792;BME280;34587;48.816;9.420;2024-03-25T08:18:50;98078.13;;;11.01;87.38
48792;BME280;34587;48.816;9.420;2024-03-25T08:21:16;98061.84;;;12.02;79.04
48792;BME280;34587;48.816;9.420;2024-03-25T08:23:41;98062.97;;;11.95;73.48
48792;BME280;34587;48.816;9.420;2024-03-25T08:26:07;98044.78;;;15.97;50.58
48792;BME280;34587;48.816;9.420;2024-03-25T08:28:32;98046.41;;;17.73;41.09
48792;BME280;34587;48.816;9.420;2024-03-25T08:30:58;98043.94;;;18.15;40.35
48792;BME280;34587;48.816;9.420;2024-03-25T08:33:23;98038.78;;;20.29;36.53
48792;BME280;34587;48.816;9.420;2024-03-25T08:35:49;98037.66;;;20.08;34.74
48792;BME280;34587;48.816;9.420;2024-03-25T08:38:14;98040.28;;;20.96;32.89
48792;BME280;34587;48.816;9.420;2024-03-25T08:40:39;98036.50;;;21.48;31.82
48792;BME280;34587;48.816;9.420;2024-03-25T08:43:06;98042.44;;;18.68;35.75
48792;BME280;34587;48.816;9.420;2024-03-25T08:45:31;98035.25;;;21.41;32.37
48792;BME280;34587;48.816;9.420;2024-03-25T08:47:57;98028.63;;;22.84;30.68
48792;BME280;34587;48.816;9.420;2024-03-25T08:50:22;98032.38;;;22.70;30.65
48792;BME280;34587;48.816;9.420;2024-03-25T08:52:47;98031.00;;;21.97;32.29
48792;BME280;34587;48.816;9.420;2024-03-25T08:55:12;98027.75;;;19.99;33.40
48792;BME280;34587;48.816;9.420;2024-03-25T08:57:38;98042.75;;;15.33;41.92
48792;BME280;34587;48.816;9.420;2024-03-25T09:00:04;98025.53;;;19.40;37.73
48792;BME280;34587;48.816;9.420;2024-03-25T09:02:29;98025.50;;;18.16;35.10
48792;BME280;34587;48.816;9.420;2024-03-25T09:04:54;98020.22;;;17.88;34.72
48792;BME280;34587;48.816;9.420;2024-03-25T09:07:20;98011.28;;;21.33;30.32
48792;BME280;34587;48.816;9.420;2024-03-25T09:09:45;98036.13;;;15.26;37.09
48792;BME280;34587;48.816;9.420;2024-03-25T09:12:29;98031.22;;;14.46;41.57
48792;BME280;34587;48.816;9.420;2024-03-25T09:14:54;98011.81;;;17.23;36.81
48792;BME280;34587;48.816;9.420;2024-03-25T09:17:19;98008.81;;;17.75;35.17
48792;BME280;34587;48.816;9.420;2024-03-25T09:19:44;97997.00;;;20.87;31.25
48792;BME280;34587;48.816;9.420;2024-03-25T09:22:10;98001.88;;;20.18;31.34
48792;BME280;34587;48.816;9.420;2024-03-25T09:24:35;97999.47;;;21.25;30.60
48792;BME280;34587;48.816;9.420;2024-03-25T09:27:01;97989.13;;;22.04;28.25
48792;BME280;34587;48.816;9.420;2024-03-25T09:29:26;97982.56;;;23.94;26.83
48792;BME280;34587;48.816;9.420;2024-03-25T09:31:51;97985.31;;;22.64;27.61
48792;BME280;34587;48.816;9.420;2024-03-25T09:34:16;97990.34;;;22.67;27.70
48792;BME280;34587;48.816;9.420;2024-03-25T09:36:42;97983.06;;;22.37;28.49
48792;BME280;34587;48.816;9.420;2024-03-25T09:39:07;97997.06;;;19.07;29.89
48792;BME280;34587;48.816;9.420;2024-03-25T09:41:35;97996.22;;;17.65;34.95
48792;BME280;34587;48.816;9.420;2024-03-25T09:44:03;97983.59;;;18.99;31.68
48792;BME280;34587;48.816;9.420;2024-03-25T09:46:30;97971.91;;;23.84;26.39
48792;BME280;34587;48.816;9.420;2024-03-25T09:48:55;97972.22;;;21.73;27.66
48792;BME280;34587;48.816;9.420;2024-03-25T09:51:21;97958.63;;;22.90;25.39
48792;BME280;34587;48.816;9.420;2024-03-25T09:53:47;97974.53;;;18.49;28.97
48792;BME280;34587;48.816;9.420;2024-03-25T09:56:12;97959.22;;;19.37;29.02
48792;BME280;34587;48.816;9.420;2024-03-25T09:58:39;97964.44;;;20.64;28.15
48792;BME280;34587;48.816;9.420;2024-03-25T10:01:04;97967.28;;;17.53;30.64
48792;BME280;34587;48.816;9.420;2024-03-25T10:03:30;97963.84;;;18.52;31.34
48792;BME280;34587;48.816;9.420;2024-03-25T10:05:55;97961.66;;;16.04;34.54
48792;BME280;34587;48.816;9.420;2024-03-25T10:08:23;97949.00;;;18.51;31.56
48792;BME280;34587;48.816;9.420;2024-03-25T10:10:55;97938.47;;;21.43;28.43
48792;BME280;34587;48.816;9.420;2024-03-25T10:13:21;97940.81;;;20.75;27.96
48792;BME280;34587;48.816;9.420;2024-03-25T10:15:49;97926.84;;;23.33;25.44
48792;BME280;34587;48.816;9.420;2024-03-25T10:18:16;97940.94;;;19.48;28.69
48792;BME280;34587;48.816;9.420;2024-03-25T10:20:52;97924.19;;;21.10;27.73
48792;BME280;34587;48.816;9.420;2024-03-25T10:23:21;97911.13;;;23.31;26.24
48792;BME280;34587;48.816;9.420;2024-03-25T10:25:48;97924.88;;;18.32;29.22
48792;BME280;34587;48.816;9.420;2024-03-25T10:28:13;97910.13;;;22.79;26.78
48792;BME280;34587;48.816;9.420;2024-03-25T10:30:39;97900.56;;;23.31;25.03
48792;BME280;34587;48.816;9.420;2024-03-25T10:33:07;97886.00;;;22.41;25.55
48792;BME280;34587;48.816;9.420;2024-03-25T10:35:34;97906.06;;;20.34;27.81
48792;BME280;34587;48.816;9.420;2024-03-25T10:38:02;97878.78;;;22.43;26.28
48792;BME280;34587;48.816;9.420;2024-03-25T10:40:30;97874.78;;;22.92;25.73
48792;BME280;34587;48.816;9.420;2024-03-25T10:43:01;97880.94;;;21.37;27.01
48792;BME280;34587;48.816;9.420;2024-03-25T10:45:29;97872.38;;;23.00;25.83
48792;BME280;34587;48.816;9.420;2024-03-25T10:47:57;97876.22;;;24.20;24.12
48792;BME280;34587;48.816;9.420;2024-03-25T10:50:26;97869.94;;;25.19;22.33
48792;BME280;34587;48.816;9.420;2024-03-25T10:52:53;97871.50;;;25.69;22.47
48792;BME280;34587;48.816;9.420;2024-03-25T10:55:20;97863.03;;;27.37;21.11
48792;BME280;34587;48.816;9.420;2024-03-25T10:57:48;97867.59;;;28.13;20.87
48792;BME280;34587;48.816;9.420;2024-03-25T11:00:14;97865.16;;;25.23;22.67
48792;BME280;34587;48.816;9.420;2024-03-25T11:02:42;97883.97;;;19.99;27.24
48792;BME280;34587;48.816;9.420;2024-03-25T11:05:08;97882.06;;;17.61;30.20
48792;BME280;34587;48.816;9.420;2024-03-25T11:07:35;97870.75;;;18.72;29.89
48792;BME280;34587;48.816;9.420;2024-03-25T11:10:03;97866.63;;;21.86;26.83
48792;BME280;34587;48.816;9.420;2024-03-25T11:12:32;97858.31;;;23.20;25.93
48792;BME280;34587;48.816;9.420;2024-03-25T11:14:57;97866.84;;;19.94;28.90
48792;BME280;34587;48.816;9.420;2024-03-25T11:17:23;97870.25;;;17.54;32.07
48792;BME280;34587;48.816;9.420;2024-03-25T11:19:48;97869.94;;;16.08;34.67
48792;BME280;34587;48.816;9.420;2024-03-25T11:22:13;97862.78;;;16.12;34.44
48792;BME280;34587;48.816;9.420;2024-03-25T11:24:43;97841.56;;;20.04;30.10
48792;BME280;34587;48.816;9.420;2024-03-25T11:27:09;97835.31;;;21.59;28.03
48792;BME280;34587;48.816;9.420;2024-03-25T11:29:35;97826.66;;;23.09;26.21
48792;BME280;34587;48.816;9.420;2024-03-25T11:32:03;97817.75;;;24.91;24.02
48792;BME280;34587;48.816;9.420;2024-03-25T11:34:29;97816.31;;;23.48;25.22
48792;BME280;34587;48.816;9.420;2024-03-25T11:36:55;97811.50;;;25.58;22.48
48792;BME280;34587;48.816;9.420;2024-03-25T11:39:22;97806.63;;;26.89;21.48
48792;BME280;34587;48.816;9.420;2024-03-25T11:41:48;97793.91;;;24.81;23.22
48792;BME280;34587;48.816;9.420;2024-03-25T11:44:13;97805.38;;;23.11;25.49
48792;BME280;34587;48.816;9.420;2024-03-25T11:46:39;97796.41;;;23.74;25.10
48792;BME280;34587;48.816;9.420;2024-03-25T11:49:11;97794.81;;;25.28;23.46
48792;BME280;34587;48.816;9.420;2024-03-25T11:51:37;97795.16;;;23.48;23.74
48792;BME280;34587;48.816;9.420;2024-03-25T11:54:05;97784.91;;;25.77;23.52
48792;BME280;34587;48.816;9.420;2024-03-25T11:56:31;97794.09;;;23.29;24.90
48792;BME280;34587;48.816;9.420;2024-03-25T11:58:57;97791.31;;;20.20;26.73
48792;BME280;34587;48.816;9.420;2024-03-25T12:01:22;97789.41;;;18.97;28.19
48792;BME280;34587;48.816;9.420;2024-03-25T12:03:48;97775.06;;;18.63;30.03
48792;BME280;34587;48.816;9.420;2024-03-25T12:06:13;97782.25;;;16.18;31.97
48792;BME280;34587;48.816;9.420;2024-03-25T12:08:38;97777.41;;;15.81;32.23
48792;BME280;34587;48.816;9.420;2024-03-25T12:11:25;97764.75;;;16.81;33.00
48792;BME280;34587;48.816;9.420;2024-03-25T12:13:50;97749.38;;;19.45;29.59
48792;BME280;34587;48.816;9.420;2024-03-25T12:16:16;97751.44;;;19.65;29.60
48792;BME280;34587;48.816;9.420;2024-03-25T12:18:42;97753.16;;;17.56;30.71
48792;BME280;34587;48.816;9.420;2024-03-25T12:21:07;97753.38;;;15.58;35.59
48792;BME280;34587;48.816;9.420;2024-03-25T12:23:33;97736.94;;;15.40;36.17
48792;BME280;34587;48.816;9.420;2024-03-25T12:26:00;97722.94;;;15.26;36.36
48792;BME280;34587;48.816;9.420;2024-03-25T12:28:26;97734.69;;;13.97;36.73
48792;BME280;34587;48.816;9.420;2024-03-25T12:30:53;97731.34;;;13.95;39.09
48792;BME280;34587;48.816;9.420;2024-03-25T12:33:20;97730.72;;;13.90;39.44
48792;BME280;34587;48.816;9.420;2024-03-25T12:35:46;97728.25;;;13.32;38.83
48792;BME280;34587;48.816;9.420;2024-03-25T12:38:28;97710.41;;;13.97;39.06
48792;BME280;34587;48.816;9.420;2024-03-25T12:41:03;97703.16;;;13.31;37.63
48792;BME280;34587;48.816;9.420;2024-03-25T12:43:31;97697.19;;;14.01;38.95
48792;BME280;34587;48.816;9.420;2024-03-25T12:45:58;97693.97;;;13.79;39.01
48792;BME280;34587;48.816;9.420;2024-03-25T12:48:24;97688.59;;;13.82;36.39
48792;BME280;34587;48.816;9.420;2024-03-25T12:50:49;97684.72;;;14.08;37.13
48792;BME280;34587;48.816;9.420;2024-03-25T12:53:17;97676.13;;;14.91;36.60
48792;BME280;34587;48.816;9.420;2024-03-25T12:55:43;97676.22;;;14.22;36.58
48792;BME280;34587;48.816;9.420;2024-03-25T12:58:08;97665.44;;;14.62;37.51
48792;BME280;34587;48.816;9.420;2024-03-25T13:00:34;97659.63;;;15.22;35.92
48792;BME280;34587;48.816;9.420;2024-03-25T13:02:59;97652.41;;;15.11;37.67
48792;BME280;34587;48.816;9.420;2024-03-25T13:05:25;97649.84;;;14.28;36.86
48792;BME280;34587;48.816;9.420;2024-03-25T13:07:50;97644.78;;;13.36;37.48
48792;BME280;34587;48.816;9.420;2024-03-25T13:10:16;97628.19;;;14.43;37.71
48792;BME280;34587;48.816;9.420;2024-03-25T13:12:41;97627.75;;;14.52;36.00
48792;BME280;34587;48.816;9.420;2024-03-25T13:15:07;97630.59;;;15.12;37.08
48792;BME280;34587;48.816;9.420;2024-03-25T13:17:33;97624.38;;;14.50;37.69
48792;BME280;34587;48.816;9.420;2024-03-25T13:19:58;97622.41;;;13.51;36.90
48792;BME280;34587;48.816;9.420;2024-03-25T13:22:23;97620.72;;;13.50;37.80
48792;BME280;34587;48.816;9.420;2024-03-25T13:24:49;97615.06;;;13.94;38.06
48792;BME280;34587;48.816;9.420;2024-03-25T13:27:15;97606.78;;;13.86;36.94
48792;BME280;34587;48.816;9.420;2024-03-25T13:29:40;97605.59;;;13.93;37.75
48792;BME280;34587;48.816;9.420;2024-03-25T13:32:05;97594.56;;;13.88;36.59
48792;BME280;34587;48.816;9.420;2024-03-25T13:34:30;97604.59;;;12.87;38.83
48792;BME280;34587;48.816;9.420;2024-03-25T13:36:56;97590.69;;;13.26;37.78
48792;BME280;34587;48.816;9.420;2024-03-25T13:39:21;97576.63;;;13.65;38.61
48792;BME280;34587;48.816;9.420;2024-03-25T13:41:46;97581.00;;;13.64;38.24
48792;BME280;34587;48.816;9.420;2024-03-25T13:44:12;97580.16;;;12.91;38.41
48792;BME280;34587;48.816;9.420;2024-03-25T13:46:37;97577.53;;;13.46;39.76
48792;BME280;34587;48.816;9.420;2024-03-25T13:49:03;97567.56;;;13.37;38.75
48792;BME280;34587;48.816;9.420;2024-03-25T13:51:28;97555.63;;;13.33;38.49
48792;BME280;34587;48.816;9.420;2024-03-25T13:53:53;97558.41;;;13.82;39.49
48792;BME280;34587;48.816;9.420;2024-03-25T13:56:19;97552.44;;;13.80;39.02
48792;BME280;34587;48.816;9.420;2024-03-25T13:58:44;97545.03;;;13.19;37.86
48792;BME280;34587;48.816;9.420;2024-03-25T14:01:09;97532.94;;;13.54;38.55
48792;BME280;34587;48.816;9.420;2024-03-25T14:03:35;97539.41;;;13.80;38.40
48792;BME280;34587;48.816;9.420;2024-03-25T14:06:00;97535.84;;;13.11;37.63
48792;BME280;34587;48.816;9.420;2024-03-25T14:08:25;97528.84;;;13.48;38.87
48792;BME280;34587;48.816;9.420;2024-03-25T14:11:01;97531.59;;;13.28;37.86
48792;BME280;34587;48.816;9.420;2024-03-25T14:13:26;97528.97;;;13.10;37.36
48792;BME280;34587;48.816;9.420;2024-03-25T14:15:52;97510.78;;;13.28;38.20
48792;BME280;34587;48.816;9.420;2024-03-25T14:18:17;97509.31;;;12.86;37.17
48792;BME280;34587;48.816;9.420;2024-03-25T14:20:42;97517.94;;;13.05;37.87
48792;BME280;34587;48.816;9.420;2024-03-25T14:23:08;97521.56;;;12.65;37.66
48792;BME280;34587;48.816;9.420;2024-03-25T14:25:33;97504.72;;;12.74;37.95
48792;BME280;34587;48.816;9.420;2024-03-25T14:27:59;97501.13;;;13.12;38.83
48792;BME280;34587;48.816;9.420;2024-03-25T14:30:24;97500.25;;;12.76;37.46
48792;BME280;34587;48.816;9.420;2024-03-25T14:32:49;97489.34;;;13.05;39.08
48792;BME280;34587;48.816;9.420;2024-03-25T14:35:14;97483.16;;;12.72;38.87
48792;BME280;34587;48.816;9.420;2024-03-25T14:37:40;97468.75;;;12.65;38.74
48792;BME280;34587;48.816;9.420;2024-03-25T14:40:06;97471.53;;;12.79;40.07
48792;BME280;34587;48.816;9.420;2024-03-25T14:42:31;97468.47;;;12.71;40.06
48792;BME280;34587;48.816;9.420;2024-03-25T14:44:57;97469.13;;;12.93;39.16
48792;BME280;34587;48.816;9.420;2024-03-25T14:47:23;97469.56;;;12.84;39.30
48792;BME280;34587;48.816;9.420;2024-03-25T14:49:48;97452.28;;;12.83;38.84
48792;BME280;34587;48.816;9.420;2024-03-25T14:52:13;97451.84;;;12.92;39.03
48792;BME280;34587;48.816;9.420;2024-03-25T14:54:39;97450.63;;;12.82;39.24
48792;BME280;34587;48.816;9.420;2024-03-25T14:57:04;97445.84;;;12.73;39.35
48792;BME280;34587;48.816;9.420;2024-03-25T14:59:30;97441.72;;;12.86;39.02
48792;BME280;34587;48.816;9.420;2024-03-25T15:02:00;97435.88;;;13.17;39.38
48792;BME280;34587;48.816;9.420;2024-03-25T15:04:26;97430.88;;;12.95;38.57
48792;BME280;34587;48.816;9.420;2024-03-25T15:06:52;97428.44;;;13.09;39.08
48792;BME280;34587;48.816;9.420;2024-03-25T15:09:17;97422.63;;;12.87;38.20
48792;BME280;34587;48.816;9.420;2024-03-25T15:11:42;97422.72;;;12.67;38.52
48792;BME280;34587;48.816;9.420;2024-03-25T15:14:08;97430.19;;;12.38;38.23
48792;BME280;34587;48.816;9.420;2024-03-25T15:16:33;97422.00;;;12.46;39.82
48792;BME280;34587;48.816;9.420;2024-03-25T15:18:58;97416.66;;;12.85;39.39
48792;BME280;34587;48.816;9.420;2024-03-25T15:21:23;97408.50;;;12.56;38.56
48792;BME280;34587;48.816;9.420;2024-03-25T15:23:49;97403.47;;;12.53;38.06
48792;BME280;34587;48.816;9.420;2024-03-25T15:26:14;97403.47;;;12.53;38.81
48792;BME280;34587;48.816;9.420;2024-03-25T15:28:40;97399.00;;;12.38;38.50
48792;BME280;34587;48.816;9.420;2024-03-25T15:31:05;97402.06;;;12.46;37.87
48792;BME280;34587;48.816;9.420;2024-03-25T15:33:30;97392.91;;;12.39;37.92
48792;BME280;34587;48.816;9.420;2024-03-25T15:35:57;97395.16;;;12.64;38.83
48792;BME280;34587;48.816;9.420;2024-03-25T15:38:22;97393.66;;;12.41;40.17
48792;BME280;34587;48.816;9.420;2024-03-25T15:40:48;97385.84;;;12.24;40.81
48792;BME280;34587;48.816;9.420;2024-03-25T15:43:17;97381.06;;;12.15;40.95
48792;BME280;34587;48.816;9.420;2024-03-25T15:45:56;97376.06;;;12.29;41.18
48792;BME280;34587;48.816;9.420;2024-03-25T15:48:21;97369.34;;;12.42;40.46
48792;BME280;34587;48.816;9.420;2024-03-25T15:50:47;97367.31;;;12.13;40.28
48792;BME280;34587;48.816;9.420;2024-03-25T15:53:13;97364.09;;;12.07;39.90
48792;BME280;34587;48.816;9.420;2024-03-25T15:55:39;97354.94;;;12.18;40.49
48792;BME280;34587;48.816;9.420;2024-03-25T15:58:04;97351.28;;;12.22;40.41
48792;BME280;34587;48.816;9.420;2024-03-25T16:00:30;97349.50;;;12.05;39.09
48792;BME280;34587;48.816;9.420;2024-03-25T16:02:55;97352.84;;;12.26;38.82
48792;BME280;34587;48.816;9.420;2024-03-25T16:05:22;97348.06;;;12.17;38.53
48792;BME280;34587;48.816;9.420;2024-03-25T16:07:47;97345.78;;;12.28;39.85
48792;BME280;34587;48.816;9.420;2024-03-25T16:10:13;97347.44;;;12.12;39.64
48792;BME280;34587;48.816;9.420;2024-03-25T16:12:38;97344.13;;;12.27;39.49
48792;BME280;34587;48.816;9.420;2024-03-25T16:15:03;97338.56;;;11.98;38.98
48792;BME280;34587;48.816;9.420;2024-03-25T16:17:29;97337.03;;;11.94;39.14
48792;BME280;34587;48.816;9.420;2024-03-25T16:19:55;97329.47;;;11.90;39.47
48792;BME280;34587;48.816;9.420;2024-03-25T16:22:20;97332.41;;;11.82;38.38
48792;BME280;34587;48.816;9.420;2024-03-25T16:24:45;97331.81;;;11.75;38.58
48792;BME280;34587;48.816;9.420;2024-03-25T16:27:12;97329.28;;;11.74;38.24
48792;BME280;34587;48.816;9.420;2024-03-25T16:29:37;97330.78;;;11.61;38.42
48792;BME280;34587;48.816;9.420;2024-03-25T16:32:02;97325.34;;;11.65;37.61
48792;BME280;34587;48.816;9.420;2024-03-25T16:34:28;97325.13;;;11.70;37.36
48792;BME280;34587;48.816;9.420;2024-03-25T16:36:54;97329.16;;;11.58;36.77
48792;BME280;34587;48.816;9.420;2024-03-25T16:39:19;97322.63;;;11.49;36.17
48792;BME280;34587;48.816;9.420;2024-03-25T16:41:45;97325.63;;;11.40;35.96
48792;BME280;34587;48.816;9.420;2024-03-25T16:44:10;97328.84;;;11.45;36.41
48792;BME280;34587;48.816;9.420;2024-03-25T16:46:36;97311.88;;;11.38;36.49
48792;BME280;34587;48.816;9.420;2024-03-25T16:49:02;97317.03;;;11.19;36.74
48792;BME280;34587;48.816;9.420;2024-03-25T16:51:28;97312.91;;;11.15;36.91
48792;BME280;34587;48.816;9.420;2024-03-25T16:53:53;97305.19;;;11.14;37.51
48792;BME280;34587;48.816;9.420;2024-03-25T16:56:18;97304.69;;;11.05;36.94
48792;BME280;34587;48.816;9.420;2024-03-25T16:58:43;97301.44;;;11.00;37.27
48792;BME280;34587;48.816;9.420;2024-03-25T17:01:09;97306.75;;;10.97;37.48
48792;BME280;34587;48.816;9.420;2024-03-25T17:03:34;97303.59;;;10.91;37.85
48792;BME280;34587;48.816;9.420;2024-03-25T17:06:00;97305.47;;;10.87;37.60
48792;BME280;34587;48.816;9.420;2024-03-25T17:08:25;97304.72;;;10.85;38.25